首页
METAR-TAF:

METAR-TAF

机场 :

迪拜国际机场

杜拜, 阿拉伯联合酋长国

纬度: 25-15-10N, 经度: 055-21-52E, 海拔: 8米

当前天气观测

该预报发布于1小时和5分钟前的08:00 UTC
风速15节,风向西转西北,在西北转西北之间变化
温度 22°C
湿度 53%
气压 1018 hPa
能見度: 8000
散云层高于3000英尺

METAR: OMDB 190800Z 29015KT 270V340 8000 SCT030 22/12 Q1018 NOSIG

时间: 13:05 (09:05 UTC)

预报

该预报发布于4小时和4分钟前的05:01 UTC
预报有效从19日的 06点(UTC)到 20日的 12点(UTC)
风速16节,风向西
能見度: 7000
散云层高于3000英尺
几率 30%
从 19日的 06点(UTC)到 19日的 14点(UTC)
能見度: 4000
浮尘
几率 30%
从 19日的 20点(UTC)到 20日的 05点(UTC)
风速7节,风向南转西南
几率 30%
从 20日的 02点(UTC)到 20日的 12点(UTC)
能見度: 4000
浮尘

TAF: OMDB 190501Z 1906/2012 28016KT 7000 SCT030 PROB30 1906/1914 4000 DU PROB30 1920/2005 21007KT PROB30 2002/2012 4000 DU

超过4000个机场的气象观测和天气预报(METAR&TAF报告)。

可查询的气象台以黄色和红色小点在地图上表示。

将鼠标移到小点上方,可查看气象台名称。

然后点击查看天气观测和预报。

如需切换地图:点击带黑十字的绿色按钮放大地图;点击带横线的绿色按钮缩小地图;或者点击绿色箭头查看邻近地区的地图。


METAR-TAF: